createdAt,value
2018-04-22T00:02:06.807Z,22.70
2018-04-22T00:04:34.470Z,22.73
2018-04-22T00:07:02.078Z,23.73
2018-04-22T00:09:29.730Z,22.13
2018-04-22T00:11:58.111Z,24.13
2018-04-22T00:14:25.755Z,23.53
2018-04-22T00:16:53.383Z,24.23
2018-04-22T00:19:21.031Z,24.30
2018-04-22T00:21:48.697Z,23.23
2018-04-22T00:24:16.326Z,24.23
2018-04-22T00:26:43.991Z,23.43
2018-04-22T00:29:11.645Z,25.03
2018-04-22T00:31:40.058Z,23.90
2018-04-22T00:34:08.525Z,24.13
2018-04-22T00:36:36.958Z,23.43
2018-04-22T00:39:04.634Z,24.30
2018-04-22T00:50:16.037Z,25.10
2018-04-22T00:52:43.710Z,23.80
2018-04-22T00:55:12.567Z,25.03
2018-04-22T00:57:40.204Z,24.77
2018-04-22T01:00:07.825Z,23.70
2018-04-22T01:02:35.482Z,24.67
2018-04-22T01:05:03.188Z,26.70
2018-04-22T01:07:31.557Z,24.83
2018-04-22T01:09:59.234Z,24.97
2018-04-22T01:12:26.877Z,24.73
2018-04-22T01:14:55.281Z,24.33
2018-04-22T01:17:23.754Z,26.83
2018-04-22T01:19:51.393Z,24.90
2018-04-22T01:22:19.062Z,24.97
2018-04-22T01:24:46.697Z,24.70
2018-04-22T01:27:15.109Z,24.73
2018-04-22T01:29:42.749Z,25.67
2018-04-22T01:32:11.150Z,25.10
2018-04-22T01:34:39.607Z,25.30
2018-04-22T01:37:07.238Z,26.40
2018-04-22T01:39:34.861Z,25.13
2018-04-22T01:42:02.535Z,25.80
2018-04-22T01:44:30.173Z,26.07
2018-04-22T01:46:57.844Z,25.70
2018-04-22T01:49:25.505Z,26.47
2018-04-22T01:51:53.192Z,26.83
2018-04-22T01:54:20.850Z,26.47
2018-04-22T01:56:49.742Z,27.23
2018-04-22T01:59:17.397Z,28.37
2018-04-22T02:01:45.056Z,28.33
2018-04-22T02:04:13.501Z,27.77
2018-04-22T02:06:41.175Z,27.73
2018-04-22T02:09:08.809Z,27.70
2018-04-22T02:11:36.478Z,27.00
2018-04-22T02:14:04.117Z,27.23
2018-04-22T02:16:31.766Z,27.53
2018-04-22T02:18:59.396Z,27.57
2018-04-22T02:21:27.000Z,28.97
2018-04-22T02:23:54.644Z,27.07
2018-04-22T02:26:23.014Z,28.73
2018-04-22T02:28:50.679Z,28.83
2018-04-22T02:31:18.338Z,28.50
2018-04-22T02:33:45.969Z,28.23
2018-04-22T02:36:13.626Z,29.83
2018-04-22T02:38:42.032Z,28.10
2018-04-22T02:41:10.465Z,28.30
2018-04-22T02:43:38.207Z,27.50
2018-04-22T02:46:05.821Z,27.20
2018-04-22T02:48:34.229Z,29.40
2018-04-22T02:51:02.614Z,29.17
2018-04-22T02:53:31.058Z,28.13
2018-04-22T02:55:59.546Z,28.83
2018-04-22T02:58:27.161Z,27.30
2018-04-22T03:00:54.808Z,28.47
2018-04-22T03:03:23.238Z,29.40
2018-04-22T03:05:50.896Z,30.67
2018-04-22T03:08:19.292Z,29.43
2018-04-22T03:10:47.693Z,30.13
2018-04-22T03:13:16.129Z,29.90
2018-04-22T03:15:44.546Z,29.70
2018-04-22T03:18:12.210Z,29.17
2018-04-22T03:20:40.727Z,29.40
2018-04-22T03:23:08.357Z,29.50
2018-04-22T03:25:36.016Z,29.13
2018-04-22T03:28:03.670Z,30.37
2018-04-22T03:30:31.611Z,31.00
2018-04-22T03:32:59.286Z,30.23
2018-04-22T03:35:26.940Z,29.90
2018-04-22T03:37:54.586Z,30.90
2018-04-22T03:40:22.217Z,28.73
2018-04-22T03:42:49.894Z,30.13
2018-04-22T03:45:17.554Z,30.67
2018-04-22T03:47:45.181Z,31.27
2018-04-22T03:50:12.829Z,31.30
2018-04-22T03:52:40.484Z,31.70
2018-04-22T03:55:08.887Z,30.13
2018-04-22T03:57:36.530Z,29.90
2018-04-22T04:00:04.236Z,29.77
2018-04-22T04:02:31.901Z,29.50
2018-04-22T04:04:59.528Z,30.43
2018-04-22T04:07:28.681Z,29.33
2018-04-22T04:09:56.401Z,30.27
2018-04-22T04:12:24.085Z,31.97
2018-04-22T04:14:51.751Z,32.33
2018-04-22T04:17:19.398Z,33.70
2018-04-22T04:19:58.833Z,31.67
2018-04-22T04:22:38.361Z,32.77
2018-04-22T04:25:37.652Z,31.97
2018-04-22T04:28:05.376Z,32.37
2018-04-22T04:30:33.803Z,34.07
2018-04-22T04:33:01.467Z,33.50
2018-04-22T04:35:29.872Z,33.13
2018-04-22T04:37:58.284Z,32.87
2018-04-22T04:40:25.947Z,33.97
2018-04-22T04:42:53.556Z,32.83
2018-04-22T04:45:21.917Z,32.67
2018-04-22T04:47:49.573Z,34.80
2018-04-22T04:50:17.213Z,34.97
2018-04-22T04:52:45.614Z,35.20
2018-04-22T04:55:13.318Z,35.90
2018-04-22T05:00:37.980Z,34.53
2018-04-22T05:03:05.629Z,33.77
2018-04-22T05:05:33.311Z,35.53
2018-04-22T05:08:00.971Z,34.37
2018-04-22T05:10:29.365Z,34.93
2018-04-22T05:12:57.043Z,33.23
2018-04-22T05:15:24.754Z,33.57
2018-04-22T05:17:53.158Z,33.77
2018-04-22T05:20:21.573Z,33.90
2018-04-22T05:22:49.942Z,33.67
2018-04-22T05:25:17.909Z,33.07
2018-04-22T05:27:45.697Z,33.07
2018-04-22T05:30:13.305Z,33.10
2018-04-22T05:32:40.974Z,32.30
2018-04-22T05:35:08.622Z,33.17
2018-04-22T05:37:36.313Z,31.37
2018-04-22T05:40:03.941Z,33.00
2018-04-22T05:42:31.564Z,34.07
2018-04-22T05:44:59.247Z,33.73
2018-04-22T05:47:26.875Z,33.30
2018-04-22T05:49:55.275Z,33.17
2018-04-22T05:52:23.734Z,32.93
2018-04-22T05:54:51.376Z,31.77
2018-04-22T05:57:19.786Z,31.47
2018-04-22T05:59:48.182Z,32.80
2018-04-22T06:02:16.581Z,34.97
2018-04-22T06:04:44.990Z,34.50
2018-04-22T06:07:13.457Z,36.10
2018-04-22T06:09:41.077Z,34.87
2018-04-22T06:12:09.722Z,34.83
2018-04-22T06:14:37.378Z,34.97
2018-04-22T06:17:06.313Z,34.87
2018-04-22T06:19:33.996Z,34.27
2018-04-22T06:22:01.641Z,34.40
2018-04-22T06:24:29.674Z,32.87
2018-04-22T06:26:58.159Z,33.27
2018-04-22T06:29:25.822Z,32.63
2018-04-22T06:31:53.458Z,32.77
2018-04-22T06:34:21.158Z,29.83
2018-04-22T06:36:48.802Z,28.30
2018-04-22T06:39:16.441Z,26.60
2018-04-22T06:41:44.121Z,29.00
2018-04-22T06:44:11.762Z,28.00
2018-04-22T06:46:39.455Z,27.33
2018-04-22T06:49:07.140Z,28.03
2018-04-22T06:51:34.776Z,27.13
2018-04-22T06:54:02.442Z,26.00
2018-04-22T06:56:30.125Z,27.10
2018-04-22T06:58:57.760Z,25.93
2018-04-22T07:01:26.310Z,26.00
2018-04-22T07:03:54.016Z,25.73
2018-04-22T07:06:21.991Z,27.17
2018-04-22T07:08:49.932Z,25.73
2018-04-22T07:11:18.439Z,25.60
2018-04-22T07:13:46.198Z,25.90
2018-04-22T07:16:13.933Z,24.43
2018-04-22T07:18:41.640Z,25.50
2018-04-22T07:21:09.383Z,24.47
2018-04-22T07:23:37.147Z,23.77
2018-04-22T07:26:06.702Z,23.00
2018-04-22T07:31:29.139Z,22.43
2018-04-22T07:34:10.186Z,22.57
2018-04-22T07:36:37.933Z,22.70
2018-04-22T07:39:06.663Z,22.53
2018-04-22T07:41:40.429Z,23.13
2018-04-22T07:47:08.776Z,21.50
2018-04-22T07:49:36.469Z,21.40
2018-04-22T07:52:04.153Z,19.57
2018-04-22T07:54:31.856Z,20.63
2018-04-22T07:56:59.574Z,20.77
2018-04-22T07:59:27.367Z,19.87
2018-04-22T08:01:55.115Z,20.07
2018-04-22T08:04:22.806Z,20.43
2018-04-22T08:06:50.553Z,19.93
2018-04-22T08:09:18.263Z,19.83
2018-04-22T08:11:46.079Z,20.43
2018-04-22T08:14:13.814Z,19.30
2018-04-22T08:16:42.320Z,20.80
2018-04-22T08:19:10.312Z,19.70
2018-04-22T08:21:38.097Z,19.40
2018-04-22T08:24:06.594Z,19.20
2018-04-22T08:26:34.401Z,19.97
2018-04-22T08:29:02.151Z,19.07
2018-04-22T08:31:29.955Z,18.57
2018-04-22T08:33:57.658Z,19.23
2018-04-22T08:36:25.674Z,19.60
2018-04-22T08:38:54.082Z,19.53
2018-04-22T08:41:21.768Z,20.70
2018-04-22T08:43:49.419Z,19.47
2018-04-22T08:46:17.830Z,19.07
2018-04-22T08:48:45.495Z,18.80
2018-04-22T08:51:13.143Z,18.77
2018-04-22T08:53:40.802Z,19.33
2018-04-22T08:56:08.454Z,19.37
2018-04-22T08:58:36.260Z,18.37
2018-04-22T09:01:03.913Z,17.50
2018-04-22T09:03:31.552Z,16.83
2018-04-22T09:05:59.215Z,17.90
2018-04-22T09:08:26.902Z,16.93
2018-04-22T09:10:54.721Z,18.40
2018-04-22T09:13:22.402Z,17.13
2018-04-22T09:15:50.075Z,16.10
2018-04-22T09:18:17.717Z,16.30
2018-04-22T09:20:45.380Z,17.10
2018-04-22T09:23:13.050Z,16.57
2018-04-22T09:25:40.758Z,16.50
2018-04-22T09:28:08.373Z,16.07
2018-04-22T09:30:36.021Z,16.60
2018-04-22T09:33:03.719Z,16.93
2018-04-22T09:35:31.375Z,15.90
2018-04-22T09:37:59.816Z,16.63
2018-04-22T09:40:28.482Z,16.23
2018-04-22T09:42:56.126Z,15.47
2018-04-22T09:45:23.791Z,15.43
2018-04-22T09:47:51.479Z,16.33
2018-04-22T09:50:19.914Z,15.57
2018-04-22T09:52:47.542Z,15.93
2018-04-22T09:55:15.226Z,15.43
2018-04-22T09:57:42.869Z,14.33
2018-04-22T10:00:11.344Z,16.53
2018-04-22T10:02:39.834Z,15.10
2018-04-22T10:05:08.625Z,13.67
2018-04-22T10:07:36.268Z,14.37
2018-04-22T10:10:03.981Z,14.57
2018-04-22T10:12:31.585Z,14.63
2018-04-22T10:14:59.240Z,16.67
2018-04-22T10:17:26.884Z,15.10
2018-04-22T10:19:54.527Z,16.37
2018-04-22T10:22:22.165Z,14.93
2018-04-22T10:24:49.804Z,13.60
2018-04-22T10:27:17.474Z,12.53
2018-04-22T10:29:45.136Z,14.17
2018-04-22T10:32:12.865Z,12.53
2018-04-22T10:34:40.613Z,12.67
2018-04-22T10:37:08.383Z,11.27
2018-04-22T10:39:36.038Z,11.10
2018-04-22T10:42:04.761Z,14.73
2018-04-22T10:44:33.172Z,10.87
2018-04-22T10:47:00.886Z,12.73
2018-04-22T10:49:29.508Z,12.87
2018-04-22T10:51:57.190Z,12.77
2018-04-22T10:54:24.866Z,11.27
2018-04-22T10:56:52.533Z,11.40
2018-04-22T10:59:20.218Z,11.60
2018-04-22T11:01:49.088Z,15.87
2018-04-22T11:04:17.526Z,14.07
2018-04-22T11:06:45.189Z,10.17
2018-04-22T11:09:12.818Z,9.73
2018-04-22T11:11:40.465Z,10.70
2018-04-22T11:14:08.121Z,11.73
2018-04-22T11:16:35.741Z,9.20
2018-04-22T11:19:03.405Z,10.63
2018-04-22T11:21:31.054Z,8.88
2018-04-22T11:23:58.726Z,10.35
2018-04-22T11:26:26.384Z,8.73
2018-04-22T11:28:54.074Z,8.75
2018-04-22T11:31:21.725Z,9.10
2018-04-22T11:33:49.359Z,8.07
2018-04-22T11:36:17.772Z,8.25
2018-04-22T11:38:45.422Z,9.20
2018-04-22T11:41:13.065Z,8.55
2018-04-22T11:43:40.700Z,7.62
2018-04-22T11:46:09.461Z,7.05
2018-04-22T11:48:37.067Z,6.82
2018-04-22T11:51:04.697Z,7.55
2018-04-22T11:53:32.389Z,7.28
2018-04-22T11:56:00.066Z,7.00
2018-04-22T11:58:27.673Z,8.77
2018-04-22T12:00:55.322Z,7.62
2018-04-22T12:03:22.963Z,6.85
2018-04-22T12:05:50.618Z,8.65
2018-04-22T12:08:18.577Z,6.93
2018-04-22T12:10:46.961Z,8.32
2018-04-22T12:13:14.593Z,7.65
2018-04-22T12:15:42.237Z,7.43
2018-04-22T12:18:09.893Z,8.27
2018-04-22T12:20:38.586Z,6.70
2018-04-22T12:23:06.223Z,8.10
2018-04-22T12:25:34.596Z,8.18
2018-04-22T12:28:02.264Z,7.15
2018-04-22T12:30:29.943Z,6.70
2018-04-22T12:32:57.665Z,6.55
2018-04-22T12:35:25.317Z,7.57
2018-04-22T12:37:52.995Z,6.05
2018-04-22T12:40:21.366Z,8.02
2018-04-22T12:42:49.015Z,6.78
2018-04-22T12:45:16.646Z,6.43
2018-04-22T12:47:44.302Z,6.18
2018-04-22T12:50:11.907Z,6.70
2018-04-22T12:52:39.556Z,5.35
2018-04-22T12:55:08.079Z,9.10
2018-04-22T12:57:35.949Z,8.98
2018-04-22T13:00:04.063Z,5.53
2018-04-22T13:02:37.392Z,5.32
2018-04-22T13:05:05.432Z,4.53
2018-04-22T13:07:34.069Z,5.35
2018-04-22T13:10:02.205Z,4.50
2018-04-22T13:12:30.335Z,5.87
2018-04-22T13:14:59.024Z,7.00
2018-04-22T13:17:27.238Z,4.00
2018-04-22T13:19:58.256Z,8.25
2018-04-22T13:22:26.173Z,4.43
2018-04-22T13:24:54.097Z,5.03
2018-04-22T13:27:21.926Z,8.68
2018-04-22T13:29:49.815Z,6.53
2018-04-22T13:32:17.711Z,5.45
2018-04-22T13:34:46.409Z,6.40
2018-04-22T13:37:14.283Z,5.72
2018-04-22T13:39:55.650Z,6.57
2018-04-22T13:42:25.500Z,5.22
2018-04-22T13:44:53.330Z,5.43
2018-04-22T13:47:42.988Z,4.93
2018-04-22T13:50:10.908Z,5.78
2018-04-22T13:52:46.544Z,5.15
2018-04-22T13:55:14.411Z,6.57
2018-04-22T13:57:42.402Z,7.10
2018-04-22T14:00:12.378Z,7.82
2018-04-22T14:02:40.234Z,7.50
2018-04-22T14:05:09.087Z,5.78
2018-04-22T14:07:38.746Z,5.55
2018-04-22T14:10:07.345Z,8.13
2018-04-22T14:12:55.003Z,6.65
2018-04-22T14:15:23.959Z,5.87
2018-04-22T14:21:08.980Z,4.85
2018-04-22T14:23:37.622Z,8.20
2018-04-22T14:26:05.562Z,6.57
2018-04-22T14:28:33.562Z,3.78
2018-04-22T14:31:03.066Z,4.93
2018-04-22T14:33:31.966Z,7.03
2018-04-22T14:36:00.633Z,3.70
2018-04-22T14:38:48.439Z,8.82
2018-04-22T14:44:23.668Z,7.28
2018-04-22T14:46:51.576Z,5.12
2018-04-22T14:49:19.434Z,7.93
2018-04-22T14:51:47.384Z,3.67
2018-04-22T14:54:15.365Z,4.90
2018-04-22T14:56:43.283Z,8.60
2018-04-22T14:59:11.666Z,5.37
2018-04-22T15:01:39.648Z,6.05
2018-04-22T15:04:07.548Z,3.53
2018-04-22T15:06:36.208Z,5.53
2018-04-22T15:12:15.740Z,6.25
2018-04-22T15:14:43.635Z,3.50
2018-04-22T15:17:11.521Z,6.18
2018-04-22T15:19:40.229Z,6.87
2018-04-22T15:22:08.690Z,4.65
2018-04-22T15:24:37.651Z,5.50
2018-04-22T15:27:05.559Z,5.53
2018-04-22T15:29:33.565Z,3.50
2018-04-22T15:32:01.502Z,6.35
2018-04-22T15:34:30.153Z,6.37
2018-04-22T15:36:58.121Z,6.10
2018-04-22T15:39:26.794Z,4.00
2018-04-22T15:41:54.691Z,5.68
2018-04-22T15:44:22.556Z,5.50
2018-04-22T15:46:50.483Z,7.75
2018-04-22T15:49:18.397Z,5.60
2018-04-22T15:51:46.295Z,5.78
2018-04-22T15:54:14.175Z,5.85
2018-04-22T15:56:42.036Z,6.47
2018-04-22T15:59:09.964Z,4.87
2018-04-22T16:01:37.850Z,4.60
2018-04-22T16:04:05.797Z,6.07
2018-04-22T16:06:34.448Z,6.87
2018-04-22T16:09:02.447Z,5.45
2018-04-22T16:11:30.865Z,5.37
2018-04-22T16:13:58.784Z,4.70
2018-04-22T16:16:26.724Z,5.53
2018-04-22T16:18:54.723Z,4.53
2018-04-22T16:21:22.945Z,3.50
2018-04-22T16:23:56.494Z,4.10
2018-04-22T16:26:24.448Z,8.30
2018-04-22T16:28:52.493Z,4.20
2018-04-22T16:31:33.144Z,5.63
2018-04-22T16:34:02.040Z,3.67
2018-04-22T16:36:29.967Z,5.70
2018-04-22T16:38:57.804Z,6.50
2018-04-22T16:41:26.415Z,5.77
2018-04-22T16:43:54.276Z,5.63
2018-04-22T16:46:22.059Z,3.33
2018-04-22T16:48:49.904Z,5.33
2018-04-22T16:51:17.682Z,3.27
2018-04-22T16:53:45.619Z,4.03
2018-04-22T16:56:14.337Z,6.57
2018-04-22T16:58:42.209Z,4.63
2018-04-22T17:01:10.062Z,5.23
2018-04-22T17:03:37.824Z,3.77
2018-04-22T17:06:05.758Z,5.50
2018-04-22T17:08:33.836Z,5.10
2018-04-22T17:11:02.659Z,6.07
2018-04-22T17:13:31.070Z,4.00
2018-04-22T17:15:58.864Z,3.30
2018-04-22T17:18:26.758Z,4.97
2018-04-22T17:20:54.582Z,7.63
2018-04-22T17:23:22.185Z,5.67
2018-04-22T17:25:49.764Z,5.63
2018-04-22T17:28:17.368Z,4.90
2018-04-22T17:30:44.945Z,3.57
2018-04-22T17:36:16.860Z,4.40
2018-04-22T17:38:44.507Z,5.50
2018-04-22T17:41:12.857Z,3.27
2018-04-22T17:43:40.452Z,4.20
2018-04-22T17:46:08.021Z,3.27
2018-04-22T17:48:35.637Z,4.87
2018-04-22T17:51:03.217Z,5.03
2018-04-22T17:53:31.252Z,4.17
2018-04-22T17:56:00.237Z,6.30
2018-04-22T17:58:27.874Z,5.07
2018-04-22T18:00:56.340Z,4.27
2018-04-22T18:03:24.826Z,6.40
2018-04-22T18:20:41.769Z,4.17
2018-04-22T18:23:10.456Z,6.23
2018-04-22T18:25:38.108Z,4.93
2018-04-22T18:28:05.774Z,4.67
2018-04-22T18:30:33.413Z,7.10
2018-04-22T18:33:01.989Z,5.07
2018-04-22T18:35:29.721Z,6.40
2018-04-22T18:37:57.403Z,4.83
2018-04-22T18:40:26.217Z,5.97
2018-04-22T18:42:54.717Z,4.93
2018-04-22T18:45:22.655Z,6.10
2018-04-22T18:47:50.302Z,4.67
2018-04-22T18:50:17.952Z,7.23
2018-04-22T18:52:45.557Z,5.43
2018-04-22T18:58:14.246Z,6.93
2018-04-22T19:00:41.918Z,5.67
2018-04-22T19:03:09.615Z,4.63
2018-04-22T19:05:37.533Z,6.47
2018-04-22T19:08:05.937Z,4.77
2018-04-22T19:10:33.568Z,5.20
2018-04-22T19:13:01.602Z,5.47
2018-04-22T19:15:40.090Z,4.83
2018-04-22T19:24:08.218Z,6.73
2018-04-22T19:26:36.754Z,7.03
2018-04-22T19:29:04.418Z,5.30
2018-04-22T19:31:33.225Z,6.80
2018-04-22T19:34:00.910Z,5.47
2018-04-22T19:36:28.550Z,7.93
2018-04-22T19:39:00.012Z,5.30
2018-04-22T19:41:28.424Z,4.73
2018-04-22T19:43:56.090Z,4.53
2018-04-22T19:46:23.713Z,5.53
2018-04-22T19:48:52.170Z,7.57
2018-04-22T19:51:20.333Z,5.60
2018-04-22T19:56:58.995Z,7.43
2018-04-22T19:59:26.727Z,5.10
2018-04-22T20:02:04.884Z,7.83
2018-04-22T20:04:33.340Z,5.97
2018-04-22T20:07:01.070Z,5.73
2018-04-22T20:09:28.707Z,5.40
2018-04-22T20:11:56.442Z,7.03
2018-04-22T20:14:24.078Z,4.77
2018-04-22T20:16:51.738Z,4.97
2018-04-22T20:19:19.529Z,6.03
2018-04-22T20:21:47.249Z,7.53
2018-04-22T20:24:14.885Z,4.77
2018-04-22T20:26:42.525Z,6.43
2018-04-22T20:29:10.179Z,7.00
2018-04-22T20:31:37.798Z,4.30
2018-04-22T20:34:05.492Z,4.40
2018-04-22T20:36:33.118Z,7.20
2018-04-22T20:39:00.857Z,4.00
2018-04-22T20:41:28.510Z,4.47
2018-04-22T20:43:56.150Z,4.23
2018-04-22T20:46:24.647Z,4.67
2018-04-22T20:48:53.772Z,5.53
2018-04-22T20:51:21.409Z,4.23
2018-04-22T20:53:49.857Z,6.20
2018-04-22T20:56:18.570Z,6.77
2018-04-22T20:58:47.185Z,4.90
2018-04-22T21:01:33.994Z,7.67
2018-04-22T21:04:02.551Z,7.30
2018-04-22T21:06:30.214Z,4.83
2018-04-22T21:08:58.618Z,5.77
2018-04-22T21:11:27.042Z,5.70
2018-04-22T21:13:54.698Z,7.23
2018-04-22T21:16:23.066Z,7.43
2018-04-22T21:18:51.538Z,5.93
2018-04-22T21:21:19.190Z,6.63
2018-04-22T21:23:47.626Z,6.20
2018-04-22T21:26:15.268Z,7.87
2018-04-22T21:28:42.933Z,7.70
2018-04-22T21:31:10.561Z,5.37
2018-04-22T21:33:38.989Z,7.57
2018-04-22T21:36:06.653Z,8.30
2018-04-22T21:38:35.066Z,7.70
2018-04-22T21:41:03.487Z,5.40
2018-04-22T21:43:31.141Z,5.57
2018-04-22T21:45:58.765Z,5.60
2018-04-22T21:48:26.398Z,10.43
2018-04-22T21:50:54.094Z,5.97
2018-04-22T21:53:22.521Z,5.93
2018-04-22T21:55:50.912Z,6.30
2018-04-22T21:58:19.362Z,7.23
2018-04-22T22:00:47.014Z,5.17
2018-04-22T22:03:15.422Z,7.67
2018-04-22T22:05:43.829Z,6.40
2018-04-22T22:08:12.261Z,5.33
2018-04-22T22:10:39.926Z,5.83
2018-04-22T22:13:07.582Z,6.10
2018-04-22T22:15:35.243Z,5.63
2018-04-22T22:18:02.882Z,5.07
2018-04-22T22:20:30.579Z,6.37
2018-04-22T22:22:58.190Z,6.67
2018-04-22T22:25:25.910Z,5.43
2018-04-22T22:27:53.555Z,6.00
2018-04-22T22:30:21.180Z,5.50
2018-04-22T22:32:48.858Z,6.23
2018-04-22T22:35:16.474Z,5.90
2018-04-22T22:37:44.111Z,6.90
2018-04-22T22:40:11.715Z,5.00
2018-04-22T22:42:39.380Z,5.27
2018-04-22T22:45:07.010Z,6.43
2018-04-22T22:47:34.654Z,5.50
2018-04-22T22:50:02.308Z,5.90
2018-04-22T22:52:29.920Z,6.13
2018-04-22T22:54:57.578Z,6.70
2018-04-22T22:57:25.193Z,5.83
2018-04-22T22:59:52.853Z,6.20
2018-04-22T23:02:21.269Z,6.10
2018-04-22T23:04:48.908Z,8.00
2018-04-22T23:07:16.593Z,5.57
2018-04-22T23:09:44.226Z,5.90
2018-04-22T23:12:11.906Z,7.17
2018-04-22T23:14:39.545Z,6.27
2018-04-22T23:17:07.589Z,5.80
2018-04-22T23:19:35.213Z,8.53
2018-04-22T23:22:02.889Z,5.73
2018-04-22T23:24:30.545Z,5.80
2018-04-22T23:26:58.166Z,5.93
2018-04-22T23:29:25.844Z,5.80
2018-04-22T23:31:53.465Z,5.63
2018-04-22T23:34:21.153Z,4.97
2018-04-22T23:36:48.786Z,5.47
2018-04-22T23:39:16.474Z,5.83
2018-04-22T23:41:44.101Z,6.40
2018-04-22T23:44:12.504Z,6.70
2018-04-22T23:46:40.154Z,7.27
2018-04-22T23:49:07.801Z,5.50
2018-04-22T23:51:35.458Z,5.87
2018-04-22T23:54:03.891Z,5.63
2018-04-22T23:56:31.522Z,6.00
2018-04-22T23:58:59.133Z,8.10
